Wetterstation Vordersexau
Wetterdaten: Woche 30.06.14 - 06.07.14 (KW27)
Datum Zeit Temp. A. Feuchte A. Luftdruck Regen Wind Richtung Taupunkt Windchill Windben
30.06.2014 00:00 12,5 C 81 % 985,2 hPa 0,0 l/m 0,0 km/h O-SO 9,3 C 12,5 C 0,0 km/h
30.06.2014 01:00 12,4 C 81 % 985,3 hPa 1,1 l/m 0,0 km/h SO 9,2 C 12,4 C 0,0 km/h
30.06.2014 02:00 12,4 C 80 % 985,5 hPa 0,0 l/m 0,0 km/h S 9,0 C 12,4 C 0,0 km/h
30.06.2014 03:00 12,3 C 79 % 985,4 hPa 0,2 l/m 0,0 km/h W-SW 8,8 C 12,3 C 0,0 km/h
30.06.2014 04:00 12,3 C 79 % 985,3 hPa 0,0 l/m 2,9 km/h S-SW 8,8 C 12,3 C 2,9 km/h
30.06.2014 05:00 12,2 C 79 % 985,4 hPa 0,2 l/m 0,0 km/h W 8,7 C 12,2 C 0,0 km/h
30.06.2014 06:00 12,3 C 77 % 985,7 hPa 0,0 l/m 0,0 km/h W 8,4 C 12,3 C 0,0 km/h
30.06.2014 07:00 12,4 C 75 % 986,2 hPa 0,3 l/m 1,9 km/h W-SW 8,1 C 12,4 C 1,1 km/h
30.06.2014 08:00 13,3 C 77 % 987,0 hPa 0,0 l/m 3,9 km/h W-SW 9,4 C 13,3 C 2,2 km/h
30.06.2014 09:00 13,6 C 83 % 987,7 hPa 0,0 l/m 2,6 km/h W 10,8 C 13,6 C 1,4 km/h
30.06.2014 10:00 14,8 C 84 % 988,1 hPa 0,0 l/m 1,9 km/h SW 12,1 C 14,8 C 1,1 km/h
30.06.2014 11:00 17,3 C 81 % 988,7 hPa 0,0 l/m 13,6 km/h W-SW 14,0 C 14,4 C 7,6 km/h
30.06.2014 12:00 19,3 C 71 % 988,7 hPa 0,0 l/m 24,6 km/h W-SW 13,9 C 14,5 C 13,7 km/h
30.06.2014 13:00 19,9 C 67 % 988,2 hPa 0,0 l/m 11,0 km/h SW 13,6 C 18,2 C 6,1 km/h
30.06.2014 14:00 17,9 C 67 % 988,5 hPa 0,0 l/m 0,0 km/h S-SW 11,7 C 17,9 C 0,0 km/h
30.06.2014 15:00 19,6 C 61 % 988,3 hPa 0,0 l/m 13,0 km/h S-SO 11,9 C 17,3 C 7,2 km/h
30.06.2014 16:00 26,9 C 48 % 988,2 hPa 0,0 l/m 9,1 km/h W 14,9 C 26,4 C 5,0 km/h
30.06.2014 17:00 20,7 C 52 % 988,3 hPa 0,0 l/m 1,3 km/h S 10,5 C 20,7 C 0,7 km/h
30.06.2014 18:00 19,8 C 58 % 988,1 hPa 0,0 l/m 0,0 km/h SO 11,3 C 19,8 C 0,0 km/h
30.06.2014 19:00 23,9 C 51 % 988,3 hPa 0,0 l/m 1,3 km/h O-NO 13,1 C 23,9 C 0,7 km/h
30.06.2014 20:00 18,5 C 60 % 988,0 hPa 0,0 l/m 0,0 km/h O-SO 10,6 C 18,5 C 0,0 km/h
30.06.2014 21:00 15,0 C 72 % 988,5 hPa 0,0 l/m 0,0 km/h NO 10,0 C 15,0 C 0,0 km/h
30.06.2014 22:00 13,8 C 77 % 989,1 hPa 0,0 l/m 0,0 km/h SO 9,8 C 13,8 C 0,0 km/h
30.06.2014 23:00 12,9 C 79 % 989,1 hPa 0,0 l/m 0,0 km/h SO 9,3 C 12,9 C 0,0 km/h
01.07.2014 00:00 11,3 C 82 % 989,3 hPa 0,0 l/m 0,0 km/h SO 8,3 C 11,3 C 0,0 km/h
01.07.2014 01:00 10,6 C 83 % 988,9 hPa 0,0 l/m 0,0 km/h SO 7,8 C 10,6 C 0,0 km/h
01.07.2014 02:00 10,2 C 84 % 988,9 hPa 0,0 l/m 0,0 km/h SO 7,6 C 10,2 C 0,0 km/h
01.07.2014 03:00 10,2 C 84 % 988,6 hPa 0,0 l/m 3,2 km/h O-SO 7,6 C 10,2 C 3,2 km/h
01.07.2014 04:00 9,4 C 84 % 988,4 hPa 0,0 l/m 0,0 km/h SO 6,8 C 9,4 C 0,0 km/h
01.07.2014 05:00 8,7 C 84 % 988,6 hPa 0,0 l/m 0,0 km/h SO 6,2 C 8,7 C 0,0 km/h
01.07.2014 06:00 8,6 C 83 % 988,7 hPa 0,0 l/m 0,0 km/h O 5,9 C 8,6 C 0,0 km/h
01.07.2014 07:00 10,6 C 82 % 989,2 hPa 0,0 l/m 0,0 km/h O-SO 7,7 C 10,6 C 0,0 km/h
01.07.2014 08:00 20,0 C 70 % 988,9 hPa 0,0 l/m 0,0 km/h W 14,4 C 20,0 C 0,0 km/h
01.07.2014 09:00 25,3 C 48 % 988,9 hPa 0,0 l/m 0,0 km/h W 13,5 C 25,3 C 0,0 km/h
01.07.2014 10:00 25,8 C 47 % 988,5 hPa 0,0 l/m 0,0 km/h N-NO 13,6 C 25,8 C 0,0 km/h
01.07.2014 11:00 26,9 C 43 % 988,1 hPa 0,0 l/m 0,0 km/h S-SW 13,2 C 26,9 C 0,0 km/h
01.07.2014 12:00 25,7 C 45 % 987,4 hPa 0,0 l/m 2,6 km/h N 12,9 C 25,7 C 1,4 km/h
01.07.2014 13:00 26,9 C 38 % 987,3 hPa 0,0 l/m 0,0 km/h W 11,4 C 26,9 C 0,0 km/h
01.07.2014 14:00 27,6 C 38 % 986,7 hPa 0,0 l/m 7,1 km/h W-NW 12,0 C 27,5 C 4,0 km/h
01.07.2014 15:00 30,1 C 34 % 986,6 hPa 0,0 l/m 2,6 km/h W 12,5 C 30,1 C 1,4 km/h
01.07.2014 16:00 28,5 C 35 % 986,2 hPa 0,0 l/m 2,6 km/h N-NO 11,5 C 28,5 C 1,4 km/h
01.07.2014 17:00 27,5 C 35 % 986,2 hPa 0,0 l/m 6,5 km/h N-NO 10,7 C 27,5 C 3,6 km/h
01.07.2014 18:00 27,5 C 34 % 986,0 hPa 0,0 l/m 0,0 km/h N-NO 10,2 C 27,5 C 0,0 km/h
01.07.2014 19:00 24,2 C 40 % 986,2 hPa 0,0 l/m 0,0 km/h N-NO 9,7 C 24,2 C 0,0 km/h
01.07.2014 20:00 21,8 C 47 % 986,4 hPa 0,0 l/m 0,0 km/h N-NO 10,0 C 21,8 C 0,0 km/h
01.07.2014 21:00 18,6 C 61 % 986,9 hPa 0,0 l/m 0,0 km/h O-SO 10,9 C 18,6 C 0,0 km/h
01.07.2014 22:00 16,1 C 67 % 987,3 hPa 0,0 l/m 0,0 km/h SO 10,0 C 16,1 C 0,0 km/h
01.07.2014 23:00 15,3 C 70 % 987,8 hPa 0,0 l/m 0,0 km/h SO 9,9 C 15,3 C 0,0 km/h
02.07.2014 00:00 14,4 C 74 % 987,7 hPa 0,0 l/m 0,0 km/h NO 9,8 C 14,4 C 0,0 km/h
02.07.2014 01:00 14,7 C 76 % 987,7 hPa 0,0 l/m 0,0 km/h O-SO 10,5 C 14,7 C 0,0 km/h
02.07.2014 02:00 14,8 C 76 % 987,1 hPa 0,0 l/m 0,0 km/h N-NO 10,6 C 14,8 C 0,0 km/h
02.07.2014 03:00 14,6 C 75 % 987,4 hPa 0,0 l/m 0,0 km/h NW 10,2 C 14,6 C 0,0 km/h
02.07.2014 04:00 13,8 C 79 % 987,6 hPa 0,0 l/m 0,0 km/h W-NW 10,2 C 13,8 C 0,0 km/h
02.07.2014 05:00 13,6 C 80 % 988,0 hPa 0,0 l/m 0,0 km/h W-SW 10,2 C 13,6 C 0,0 km/h
02.07.2014 06:00 13,8 C 80 % 988,6 hPa 0,0 l/m 0,0 km/h W-SW 10,4 C 13,8 C 0,0 km/h
02.07.2014 07:00 14,5 C 79 % 989,1 hPa 0,0 l/m 0,0 km/h W 10,9 C 14,5 C 0,0 km/h
02.07.2014 08:00 15,7 C 75 % 989,3 hPa 0,0 l/m 0,0 km/h W 11,3 C 15,7 C 0,0 km/h
02.07.2014 09:00 16,8 C 72 % 989,7 hPa 0,0 l/m 0,0 km/h W-NW 11,7 C 16,8 C 0,0 km/h
02.07.2014 10:00 18,1 C 68 % 990,1 hPa 0,0 l/m 0,0 km/h S-SO 12,1 C 18,1 C 0,0 km/h
02.07.2014 11:00 20,2 C 64 % 990,4 hPa 0,0 l/m 7,8 km/h SW 13,2 C 19,6 C 4,3 km/h
02.07.2014 12:00 20,8 C 59 % 990,8 hPa 0,0 l/m 2,6 km/h S 12,5 C 20,8 C 1,4 km/h
02.07.2014 13:00 22,5 C 58 % 991,0 hPa 0,0 l/m 0,0 km/h SO 13,8 C 22,5 C 0,0 km/h
02.07.2014 14:00 24,3 C 55 % 991,4 hPa 0,0 l/m 0,0 km/h S-SW 14,7 C 24,3 C 0,0 km/h
02.07.2014 15:00 27,6 C 48 % 991,2 hPa 0,0 l/m 0,0 km/h W 15,6 C 27,6 C 0,0 km/h
02.07.2014 16:00 29,8 C 40 % 991,4 hPa 0,0 l/m 0,0 km/h W-NW 14,7 C 29,8 C 0,0 km/h
02.07.2014 17:00 31,0 C 38 % 991,3 hPa 0,0 l/m 14,9 km/h W 15,0 C 30,6 C 8,3 km/h
02.07.2014 18:00 29,4 C 38 % 991,4 hPa 0,0 l/m 1,3 km/h W-SW 13,6 C 29,4 C 0,7 km/h
02.07.2014 19:00 26,9 C 43 % 992,0 hPa 0,0 l/m 9,1 km/h W-SW 13,2 C 26,4 C 5,0 km/h
02.07.2014 20:00 21,3 C 57 % 992,4 hPa 0,0 l/m 0,0 km/h W 12,4 C 21,3 C 0,0 km/h
02.07.2014 21:00 18,5 C 62 % 992,7 hPa 0,0 l/m 0,0 km/h NO 11,1 C 18,5 C 0,0 km/h
02.07.2014 22:00 15,8 C 76 % 993,5 hPa 0,0 l/m 0,0 km/h O-SO 11,6 C 15,8 C 0,0 km/h
02.07.2014 23:00 14,1 C 79 % 993,7 hPa 0,0 l/m 0,0 km/h SO 10,5 C 14,1 C 0,0 km/h
03.07.2014 00:00 13,3 C 82 % 994,4 hPa 0,0 l/m 0,0 km/h O-NO 10,3 C 13,3 C 0,0 km/h
03.07.2014 01:00 13,3 C 83 % 994,5 hPa 0,0 l/m 0,0 km/h SO 10,5 C 13,3 C 0,0 km/h
03.07.2014 02:00 12,7 C 83 % 994,7 hPa 0,0 l/m 0,0 km/h SO 9,9 C 12,7 C 0,0 km/h
03.07.2014 03:00 12,1 C 84 % 994,6 hPa 0,0 l/m 0,0 km/h SO 9,5 C 12,1 C 0,0 km/h
03.07.2014 04:00 11,6 C 84 % 994,4 hPa 0,0 l/m 0,0 km/h SO 9,0 C 11,6 C 0,0 km/h
03.07.2014 05:00 10,7 C 84 % 994,3 hPa 0,0 l/m 0,0 km/h SO 8,1 C 10,7 C 0,0 km/h
03.07.2014 06:00 11,1 C 83 % 994,2 hPa 0,0 l/m 9,7 km/h SO 8,3 C 9,0 C 5,4 km/h
03.07.2014 07:00 13,1 C 84 % 994,6 hPa 0,0 l/m 14,9 km/h W-SW 10,5 C 8,9 C 8,3 km/h
03.07.2014 08:00 22,2 C 67 % 995,2 hPa 0,0 l/m 0,0 km/h W 15,8 C 22,2 C 0,0 km/h
03.07.2014 09:00 26,8 C 52 % 995,4 hPa 0,0 l/m 0,0 km/h W-SW 16,1 C 26,8 C 0,0 km/h
03.07.2014 10:00 28,3 C 46 % 995,4 hPa 0,0 l/m 1,3 km/h W-NW 15,6 C 28,3 C 0,7 km/h
03.07.2014 11:00 30,6 C 38 % 995,1 hPa 0,0 l/m 5,8 km/h N 14,6 C 30,6 C 3,2 km/h
03.07.2014 12:00 29,3 C 39 % 994,9 hPa 0,0 l/m 5,2 km/h NO 13,9 C 29,3 C 2,9 km/h
03.07.2014 13:00 30,3 C 35 % 994,3 hPa 0,0 l/m 0,0 km/h N 13,1 C 30,3 C 0,0 km/h
03.07.2014 14:00 31,1 C 26 % 993,6 hPa 0,0 l/m 0,0 km/h W-NW 9,3 C 31,1 C 0,0 km/h
03.07.2014 15:00 32,3 C 26 % 993,1 hPa 0,0 l/m 0,0 km/h NW 10,3 C 32,3 C 0,0 km/h
03.07.2014 16:00 35,9 C 21 % 992,5 hPa 0,0 l/m 0,0 km/h NW 10,1 C 35,9 C 0,0 km/h
03.07.2014 17:00 37,8 C 22 % 992,0 hPa 0,0 l/m 0,0 km/h W-SW 12,4 C 37,8 C 0,0 km/h
03.07.2014 18:00 36,6 C 21 % 991,4 hPa 0,0 l/m 7,1 km/h SW 10,7 C 36,6 C 4,0 km/h
03.07.2014 19:00 32,9 C 25 % 991,0 hPa 0,0 l/m 0,0 km/h W 10,2 C 32,9 C 0,0 km/h
03.07.2014 20:00 25,9 C 38 % 990,8 hPa 0,0 l/m 0,0 km/h NW 10,5 C 25,9 C 0,0 km/h
03.07.2014 21:00 22,1 C 49 % 990,6 hPa 0,0 l/m 0,0 km/h SO 10,9 C 22,1 C 0,0 km/h
03.07.2014 22:00 18,4 C 59 % 990,7 hPa 0,0 l/m 0,0 km/h SO 10,2 C 18,4 C 0,0 km/h
03.07.2014 23:00 16,6 C 64 % 990,4 hPa 0,0 l/m 0,0 km/h O-NO 9,8 C 16,6 C 0,0 km/h
04.07.2014 00:00 15,8 C 70 % 990,1 hPa 0,0 l/m 0,0 km/h O-NO 10,3 C 15,8 C 0,0 km/h
04.07.2014 01:00 15,1 C 71 % 989,7 hPa 0,0 l/m 0,0 km/h SO 9,9 C 15,1 C 0,0 km/h
04.07.2014 02:00 15,0 C 72 % 989,0 hPa 0,0 l/m 0,0 km/h NO 10,0 C 15,0 C 0,0 km/h
04.07.2014 03:00 13,6 C 74 % 988,5 hPa 0,0 l/m 0,0 km/h NO 9,1 C 13,6 C 0,0 km/h
04.07.2014 04:00 12,1 C 77 % 988,1 hPa 0,0 l/m 0,0 km/h O-NO 8,2 C 12,1 C 0,0 km/h
04.07.2014 05:00 12,6 C 80 % 987,5 hPa 0,0 l/m 0,0 km/h O-NO 9,2 C 12,6 C 0,0 km/h
04.07.2014 06:00 13,3 C 80 % 987,0 hPa 0,0 l/m 0,0 km/h SO 9,9 C 13,3 C 0,0 km/h
04.07.2014 07:00 15,8 C 78 % 985,8 hPa 0,0 l/m 0,0 km/h S-SW 12,0 C 15,8 C 0,0 km/h
04.07.2014 08:00 20,9 C 65 % 985,2 hPa 0,0 l/m 0,0 km/h SW 14,1 C 20,9 C 0,0 km/h
04.07.2014 09:00 22,6 C 58 % 985,1 hPa 0,0 l/m 0,0 km/h W-NW 13,9 C 22,6 C 0,0 km/h
04.07.2014 10:00 27,8 C 44 % 983,9 hPa 0,0 l/m 4,5 km/h N-NW 14,4 C 27,8 C 2,5 km/h
04.07.2014 11:00 26,5 C 46 % 983,1 hPa 0,0 l/m 0,0 km/h N 13,9 C 26,5 C 0,0 km/h
04.07.2014 12:00 28,6 C 46 % 981,9 hPa 0,0 l/m 0,0 km/h N-NW 15,8 C 28,6 C 0,0 km/h
04.07.2014 13:00 29,2 C 47 % 981,1 hPa 0,0 l/m 0,0 km/h NW 16,7 C 29,2 C 0,0 km/h
04.07.2014 14:00 30,9 C 45 % 980,2 hPa 0,0 l/m 5,2 km/h N-NW 17,6 C 30,9 C 2,9 km/h
04.07.2014 15:00 32,6 C 41 % 979,7 hPa 0,0 l/m 0,0 km/h W 17,6 C 32,6 C 0,0 km/h
04.07.2014 16:00 32,2 C 41 % 979,0 hPa 0,0 l/m 0,0 km/h W 17,2 C 32,2 C 0,0 km/h
04.07.2014 17:00 30,3 C 42 % 980,0 hPa 0,0 l/m 6,5 km/h N 15,9 C 30,3 C 3,6 km/h
04.07.2014 18:00 31,4 C 49 % 980,0 hPa 0,2 l/m 0,0 km/h N-NW 19,4 C 31,4 C 0,0 km/h
04.07.2014 19:00 28,9 C 49 % 980,3 hPa 0,0 l/m 0,0 km/h O 17,1 C 28,9 C 0,0 km/h
04.07.2014 20:00 24,1 C 51 % 979,5 hPa 0,0 l/m 0,0 km/h NW 13,3 C 24,1 C 0,0 km/h
04.07.2014 21:00 22,5 C 55 % 979,8 hPa 0,0 l/m 0,0 km/h SO 13,0 C 22,5 C 0,0 km/h
04.07.2014 22:00 20,4 C 65 % 980,5 hPa 0,0 l/m 0,0 km/h S-SW 13,6 C 20,4 C 0,0 km/h
04.07.2014 23:00 16,8 C 82 % 983,5 hPa 0,5 l/m 10,1 km/h S 13,7 C 15,1 C 10,1 km/h
05.07.2014 00:00 16,1 C 83 % 984,4 hPa 0,5 l/m 4,7 km/h NO 13,2 C 16,1 C 4,7 km/h
05.07.2014 01:00 15,9 C 83 % 983,5 hPa 0,5 l/m 0,0 km/h SO 13,0 C 15,9 C 0,0 km/h
05.07.2014 02:00 15,6 C 82 % 982,4 hPa 0,5 l/m 0,7 km/h S-SO 12,5 C 15,6 C 0,7 km/h
05.07.2014 03:00 15,2 C 82 % 982,2 hPa 0,0 l/m 0,7 km/h S-SO 12,1 C 15,2 C 0,7 km/h
05.07.2014 04:00 16,2 C 83 % 982,0 hPa 0,0 l/m 0,0 km/h O 13,3 C 16,2 C 0,0 km/h
05.07.2014 05:00 16,4 C 83 % 981,8 hPa 0,0 l/m 0,0 km/h NO 13,5 C 16,4 C 0,0 km/h
05.07.2014 06:00 16,1 C 83 % 982,0 hPa 0,0 l/m 0,0 km/h SW 13,2 C 16,1 C 0,0 km/h
05.07.2014 07:00 17,4 C 83 % 982,5 hPa 0,0 l/m 2,6 km/h S 14,5 C 17,4 C 1,4 km/h
05.07.2014 08:00 18,3 C 82 % 982,8 hPa 0,0 l/m 6,5 km/h W-SW 15,2 C 18,3 C 3,6 km/h
05.07.2014 09:00 19,1 C 82 % 982,9 hPa 0,0 l/m 18,8 km/h W 16,0 C 15,3 C 10,4 km/h
05.07.2014 10:00 20,9 C 77 % 983,1 hPa 0,0 l/m 24,6 km/h W-SW 16,7 C 16,7 C 13,7 km/h
05.07.2014 11:00 25,3 C 61 % 983,5 hPa 0,0 l/m 13,6 km/h W 17,2 C 23,9 C 7,6 km/h
05.07.2014 12:00 19,0 C 76 % 984,3 hPa 0,0 l/m 2,6 km/h S-SW 14,7 C 19,0 C 1,4 km/h
05.07.2014 13:00 18,8 C 81 % 984,7 hPa 0,2 l/m 3,2 km/h W-SW 15,5 C 18,8 C 1,8 km/h
05.07.2014 14:00 21,9 C 75 % 984,3 hPa 0,0 l/m 3,2 km/h S 17,3 C 21,9 C 1,8 km/h
05.07.2014 15:00 20,9 C 76 % 984,4 hPa 0,0 l/m 11,0 km/h W 16,5 C 19,3 C 6,1 km/h
05.07.2014 16:00 23,3 C 70 % 984,3 hPa 0,0 l/m 6,5 km/h W-SW 17,5 C 23,3 C 3,6 km/h
05.07.2014 17:00 24,1 C 65 % 984,2 hPa 0,0 l/m 26,6 km/h S 17,1 C 20,8 C 14,8 km/h
05.07.2014 18:00 23,8 C 66 % 983,9 hPa 0,0 l/m 3,9 km/h SW 17,1 C 23,8 C 2,2 km/h
05.07.2014 19:00 26,5 C 58 % 983,8 hPa 0,0 l/m 14,3 km/h S-SW 17,5 C 25,2 C 7,9 km/h
05.07.2014 20:00 21,9 C 68 % 983,6 hPa 0,0 l/m 1,9 km/h SO 15,7 C 21,9 C 1,1 km/h
05.07.2014 21:00 20,3 C 74 % 983,8 hPa 0,0 l/m 0,0 km/h N-NO 15,5 C 20,3 C 0,0 km/h
05.07.2014 22:00 18,4 C 80 % 984,4 hPa 0,0 l/m 0,0 km/h SO 14,9 C 18,4 C 0,0 km/h
05.07.2014 23:00 17,9 C 82 % 984,3 hPa 0,0 l/m 0,0 km/h SO 14,8 C 17,9 C 0,0 km/h
06.07.2014 00:00 17,1 C 83 % 984,4 hPa 0,0 l/m 0,0 km/h SO 14,2 C 17,1 C 0,0 km/h
06.07.2014 01:00 16,7 C 83 % 984,2 hPa 0,0 l/m 0,0 km/h O-SO 13,8 C 16,7 C 0,0 km/h
06.07.2014 02:00 15,9 C 82 % 983,7 hPa 0,0 l/m 0,0 km/h SO 12,8 C 15,9 C 0,0 km/h
06.07.2014 03:00 15,6 C 81 % 983,2 hPa 0,0 l/m 0,0 km/h SO 12,3 C 15,6 C 0,0 km/h
06.07.2014 04:00 15,4 C 80 % 983,0 hPa 0,0 l/m 0,0 km/h NO 12,0 C 15,4 C 0,0 km/h
06.07.2014 05:00 15,3 C 80 % 982,7 hPa 0,0 l/m 0,0 km/h O-SO 11,9 C 15,3 C 0,0 km/h
06.07.2014 06:00 15,6 C 79 % 982,5 hPa 0,0 l/m 0,0 km/h SO 12,0 C 15,6 C 0,0 km/h
06.07.2014 07:00 17,3 C 78 % 982,5 hPa 0,0 l/m 5,8 km/h N-NO 13,4 C 17,3 C 3,2 km/h
06.07.2014 08:00 25,6 C 70 % 982,3 hPa 0,0 l/m 0,0 km/h W 19,7 C 25,6 C 0,0 km/h
06.07.2014 09:00 29,4 C 56 % 982,3 hPa 0,0 l/m 0,0 km/h W 19,7 C 29,4 C 0,0 km/h
06.07.2014 10:00 31,9 C 51 % 982,2 hPa 0,0 l/m 5,2 km/h N-NO 20,5 C 31,9 C 2,9 km/h
06.07.2014 11:00 32,9 C 45 % 981,9 hPa 0,0 l/m 0,0 km/h W 19,4 C 32,9 C 0,0 km/h
06.07.2014 12:00 32,3 C 45 % 981,6 hPa 0,0 l/m 2,6 km/h W 18,8 C 32,3 C 1,4 km/h
06.07.2014 13:00 31,0 C 44 % 981,7 hPa 0,0 l/m 10,4 km/h W-NW 17,3 C 30,8 C 5,8 km/h
06.07.2014 14:00 31,9 C 40 % 981,3 hPa 0,0 l/m 9,7 km/h W 16,6 C 31,8 C 5,4 km/h
06.07.2014 15:00 30,1 C 43 % 981,1 hPa 0,0 l/m 18,8 km/h S 16,1 C 29,3 C 10,4 km/h
06.07.2014 16:00 28,5 C 58 % 979,9 hPa 0,0 l/m 0,0 km/h W 19,4 C 28,5 C 0,0 km/h
06.07.2014 17:00 40,6 C 30 % 979,0 hPa 0,0 l/m 8,4 km/h W-NW 19,6 C 40,6 C 4,7 km/h
06.07.2014 18:00 38,1 C 30 % 978,3 hPa 0,0 l/m 0,0 km/h W 17,4 C 38,1 C 0,0 km/h
06.07.2014 19:00 36,1 C 33 % 978,3 hPa 0,0 l/m 0,0 km/h W-SW 17,2 C 36,1 C 0,0 km/h
06.07.2014 20:00 26,4 C 55 % 980,8 hPa 0,0 l/m 20,7 km/h W-SW 16,6 C 24,4 C 11,5 km/h
06.07.2014 21:00 17,9 C 81 % 985,5 hPa 1,7 l/m 5,0 km/h O-SO 14,6 C 17,9 C 5,0 km/h
06.07.2014 22:00 17,6 C 82 % 985,0 hPa 1,4 l/m 0,0 km/h S-SW 14,5 C 17,6 C 0,0 km/h
06.07.2014 23:00 17,1 C 82 % 984,9 hPa 0,3 l/m 0,0 km/h O 14,0 C 17,1 C 0,0 km/h
Min-Datum _ 01.07.14 03.07.14 06.07.14 - 30.06.14 - 01.07.14 01.07.14 30.06.14
_ Min-Zeit 06:19 16:19 18:19 - 00:19 - 06:19 06:19 00:19
Minimum _ 8,6 C 21 % 978,3 hPa - 0,0 km/h - 5,9 C 8,6 C 0,0 km/h
Max-Datum _ 06.07.14 30.06.14 03.07.14 06.07.14 05.07.14 - 06.07.14 06.07.14 05.07.14
_ Max-Zeit 17:19 10:19 09:19 21:19 17:19 - 10:19 17:19 17:19
Maximum _ 40,6 C 84 % 995,4 hPa 1,7 l/m 26,6 km/h
S
- 20,5 C 40,6 C 14,8 km/h
S
Durchschnitt _ 20,7 C 64 % 986,9 hPa #7,3 l/m 2,7 km/h SO 12,7 C 20,5 C 1,6 km/h
www.sexauwetter.de